Time,TemperatureF,DewpointF,PressureIn,WindDirection,WindDirectionDegrees,WindSpeedMPH,WindSpeedGustMPH,Humidity,HourlyPrecipIn,Conditions,Clouds,dailyrainin,SoftwareType,DateUTC
2013-02-21 00:04:00,36.7,35.9,30.01,ESE,121,0.0,0.0,97,0.00,,SKC,0.00,VWS V14.01,2013-02-21 08:04:00,
2013-02-21 00:09:00,36.7,35.9,30.01,ESE,121,0.0,1.0,97,0.00,,SKC,0.00,VWS V14.01,2013-02-21 08:09:00,
2013-02-21 00:14:00,36.8,36.0,30.02,ESE,121,0.0,1.0,97,0.00,,SKC,0.00,VWS V14.01,2013-02-21 08:14:00,
2013-02-21 00:19:00,36.8,36.0,30.02,ESE,121,0.0,0.0,97,0.00,,SKC,0.00,VWS V14.01,2013-02-21 08:19:00,
2013-02-21 00:24:00,36.9,36.1,30.02,ESE,121,0.0,1.0,97,0.00,,SKC,0.00,VWS V14.01,2013-02-21 08:24:00,
2013-02-21 00:29:00,37.0,36.5,30.02,ESE,121,0.0,1.0,98,0.00,,SKC,0.00,VWS V14.01,2013-02-21 08:29:00,
2013-02-21 00:34:00,37.0,36.2,30.02,ESE,121,0.0,1.0,97,0.00,,SKC,0.00,VWS V14.01,2013-02-21 08:34:00,
2013-02-21 00:39:00,37.0,36.2,30.02,ESE,121,0.0,1.0,97,0.00,,SKC,0.00,VWS V14.01,2013-02-21 08:39:00,
2013-02-21 00:44:00,37.0,36.2,30.02,ESE,121,0.0,1.0,97,0.00,,SKC,0.00,VWS V14.01,2013-02-21 08:44:00,
2013-02-21 00:49:00,37.1,36.3,30.03,ESE,121,0.0,0.0,97,0.00,,SKC,0.00,VWS V14.01,2013-02-21 08:49:00,
2013-02-21 00:54:00,37.2,36.4,30.03,ESE,121,0.0,0.0,97,0.00,,SKC,0.00,VWS V14.01,2013-02-21 08:54:00,
2013-02-21 00:59:00,37.4,36.6,30.03,ESE,121,0.0,0.0,97,0.00,,SKC,0.00,VWS V14.01,2013-02-21 08:59:00,
2013-02-21 01:04:00,37.5,36.7,30.04,ESE,121,0.0,0.0,97,0.00,,SKC,0.00,VWS V14.01,2013-02-21 09:04:00,
2013-02-21 01:09:00,37.6,36.8,30.04,ESE,121,0.0,0.0,97,0.00,,SKC,0.00,VWS V14.01,2013-02-21 09:09:00,
2013-02-21 01:14:00,37.6,36.8,30.04,ESE,121,0.0,0.0,97,0.00,,SKC,0.00,VWS V14.01,2013-02-21 09:14:00,
2013-02-21 01:19:00,37.6,36.6,30.04,ESE,121,1.0,1.0,96,0.00,,SKC,0.00,VWS V14.01,2013-02-21 09:19:00,
2013-02-21 01:24:00,37.6,36.6,30.03,ESE,121,1.0,2.0,96,0.00,,SKC,0.00,VWS V14.01,2013-02-21 09:24:00,
2013-02-21 01:29:00,37.5,36.5,30.03,ESE,121,0.0,2.0,96,0.00,,SKC,0.00,VWS V14.01,2013-02-21 09:29:00,
2013-02-21 01:34:00,37.5,36.5,30.04,ESE,121,0.0,0.0,96,0.00,,SKC,0.00,VWS V14.01,2013-02-21 09:34:00,
2013-02-21 01:39:00,37.5,36.5,30.04,ESE,121,0.0,1.0,96,0.00,,SKC,0.00,VWS V14.01,2013-02-21 09:39:00,
2013-02-21 01:44:00,37.5,36.5,30.05,ESE,121,0.0,1.0,96,0.00,,SKC,0.00,VWS V14.01,2013-02-21 09:44:00,
2013-02-21 01:49:00,37.6,36.8,30.05,ESE,121,0.0,1.0,97,0.00,,SKC,0.00,VWS V14.01,2013-02-21 09:49:00,
2013-02-21 01:54:00,37.7,36.7,30.05,ESE,121,1.0,1.0,96,0.00,,SKC,0.00,VWS V14.01,2013-02-21 09:54:00,
2013-02-21 01:59:00,37.7,36.7,30.04,ESE,121,0.0,1.0,96,0.00,,SKC,0.00,VWS V14.01,2013-02-21 09:59:00,
2013-02-21 02:04:00,37.6,36.6,30.04,ESE,121,0.0,1.0,96,0.00,,SKC,0.00,VWS V14.01,2013-02-21 10:04:00,
2013-02-21 02:09:00,37.5,36.5,30.03,ESE,121,2.0,2.0,96,0.00,,SKC,0.00,VWS V14.01,2013-02-21 10:09:00,
2013-02-21 02:14:00,37.4,36.4,30.03,ESE,121,0.0,2.0,96,0.00,,SKC,0.00,VWS V14.01,2013-02-21 10:14:00,
2013-02-21 02:20:00,37.4,36.6,30.03,ESE,121,0.0,1.0,97,0.00,,SKC,0.00,VWS V14.01,2013-02-21 10:20:00,
2013-02-21 02:25:00,37.4,36.6,30.04,ESE,121,0.0,1.0,97,0.00,,SKC,0.00,VWS V14.01,2013-02-21 10:25:00,
2013-02-21 02:30:00,37.4,36.6,30.04,ESE,121,0.0,1.0,97,0.00,,SKC,0.00,VWS V14.01,2013-02-21 10:30:00,
2013-02-21 02:35:00,37.4,36.6,30.05,ESE,121,0.0,0.0,97,0.00,,SKC,0.00,VWS V14.01,2013-02-21 10:35:00,
2013-02-21 02:40:00,37.4,36.6,30.04,ESE,121,1.0,2.0,97,0.00,,SKC,0.00,VWS V14.01,2013-02-21 10:40:00,
2013-02-21 02:45:00,37.3,36.5,30.02,ESE,121,0.0,2.0,97,0.00,,SKC,0.00,VWS V14.01,2013-02-21 10:45:00,
2013-02-21 02:50:00,37.3,36.5,30.03,ESE,121,0.0,1.0,97,0.00,,SKC,0.00,VWS V14.01,2013-02-21 10:50:00,
2013-02-21 02:55:00,37.4,36.6,30.03,ESE,121,0.0,2.0,97,0.00,,SKC,0.00,VWS V14.01,2013-02-21 10:55:00,
2013-02-21 03:00:00,37.6,36.8,30.04,ESE,121,0.0,2.0,97,0.00,,SKC,0.00,VWS V14.01,2013-02-21 11:00:00,
2013-02-21 03:05:00,37.7,36.9,30.04,ESE,121,0.0,2.0,97,0.00,,SKC,0.00,VWS V14.01,2013-02-21 11:05:00,
2013-02-21 03:10:00,37.9,37.1,30.04,ESE,121,0.0,2.0,97,0.00,,SKC,0.00,VWS V14.01,2013-02-21 11:10:00,
2013-02-21 03:15:00,38.0,37.2,30.04,ESE,121,0.0,2.0,97,0.00,,SKC,0.00,VWS V14.01,2013-02-21 11:15:00,
2013-02-21 03:20:00,38.0,37.0,30.03,ESE,121,0.0,0.0,96,0.00,,SKC,0.00,VWS V14.01,2013-02-21 11:20:00,
2013-02-21 03:25:00,38.0,37.0,30.03,ESE,121,0.0,2.0,96,0.00,,SKC,0.00,VWS V14.01,2013-02-21 11:25:00,
2013-02-21 03:30:00,38.1,37.1,30.02,SE,128,1.0,4.0,96,0.00,,SKC,0.00,VWS V14.01,2013-02-21 11:30:00,
2013-02-21 03:35:00,38.1,37.1,30.03,SE,134,0.0,4.0,96,0.00,,SKC,0.00,VWS V14.01,2013-02-21 11:35:00,
2013-02-21 03:40:00,38.2,37.2,30.02,SE,134,0.0,4.0,96,0.00,,SKC,0.00,VWS V14.01,2013-02-21 11:40:00,
2013-02-21 03:45:00,38.2,37.2,30.02,SE,134,0.0,4.0,96,0.00,,SKC,0.00,VWS V14.01,2013-02-21 11:45:00,
2013-02-21 03:50:00,38.3,37.3,30.03,SE,134,0.0,1.0,96,0.00,,SKC,0.00,VWS V14.01,2013-02-21 11:50:00,
2013-02-21 03:55:00,38.4,37.4,30.03,SE,134,0.0,1.0,96,0.00,,SKC,0.00,VWS V14.01,2013-02-21 11:55:00,
2013-02-21 04:00:00,38.6,37.6,30.04,SE,134,0.0,2.0,96,0.00,,SKC,0.00,VWS V14.01,2013-02-21 12:00:00,
2013-02-21 04:05:00,38.8,37.5,30.04,SW,225,2.0,4.0,95,0.01,,SKC,0.01,VWS V14.01,2013-02-21 12:05:00,
2013-02-21 04:10:00,39.0,38.0,30.03,SW,225,3.0,4.0,96,0.01,,SKC,0.01,VWS V14.01,2013-02-21 12:10:00,
2013-02-21 04:15:00,38.9,37.9,30.03,SSW,211,0.0,0.0,96,0.01,,SKC,0.01,VWS V14.01,2013-02-21 12:15:00,
2013-02-21 04:20:00,38.7,37.4,30.03,SSW,211,0.0,1.0,95,0.01,,SKC,0.01,VWS V14.01,2013-02-21 12:20:00,
2013-02-21 04:25:00,38.5,37.5,30.03,SE,143,0.0,4.0,96,0.01,,SKC,0.01,VWS V14.01,2013-02-21 12:25:00,
2013-02-21 04:30:00,38.4,37.4,30.03,SE,140,2.0,2.0,96,0.01,,SKC,0.01,VWS V14.01,2013-02-21 12:30:00,
2013-02-21 04:35:00,38.3,37.3,30.03,SE,140,0.0,2.0,96,0.01,,SKC,0.01,VWS V14.01,2013-02-21 12:35:00,
2013-02-21 04:40:00,38.3,37.3,30.03,SE,140,0.0,2.0,96,0.01,,SKC,0.01,VWS V14.01,2013-02-21 12:40:00,
2013-02-21 04:45:00,38.4,37.4,30.03,SE,140,0.0,0.0,96,0.01,,SKC,0.01,VWS V14.01,2013-02-21 12:45:00,
2013-02-21 04:50:00,38.4,37.4,30.03,SE,127,1.0,5.0,96,0.01,,SKC,0.01,VWS V14.01,2013-02-21 12:50:00,
2013-02-21 04:55:00,38.5,37.5,30.03,SE,127,0.0,5.0,96,0.01,,SKC,0.01,VWS V14.01,2013-02-21 12:55:00,
2013-02-21 05:00:00,38.6,37.6,30.03,SE,140,1.0,1.0,96,0.01,,SKC,0.01,VWS V14.01,2013-02-21 13:00:00,
2013-02-21 05:06:00,38.7,37.7,30.03,SE,140,0.0,2.0,96,0.01,,SKC,0.01,VWS V14.01,2013-02-21 13:06:00,
2013-02-21 05:11:00,38.8,37.8,30.03,SSE,163,1.0,5.0,96,0.01,,SKC,0.01,VWS V14.01,2013-02-21 13:11:00,
2013-02-21 05:16:00,38.8,37.8,30.03,SE,130,4.0,4.0,96,0.00,,SKC,0.01,VWS V14.01,2013-02-21 13:16:00,
2013-02-21 05:21:00,38.9,37.9,30.03,SE,132,1.0,4.0,96,0.00,,SKC,0.01,VWS V14.01,2013-02-21 13:21:00,
2013-02-21 05:26:00,38.9,37.9,30.03,SSE,157,1.0,4.0,96,0.00,,SKC,0.01,VWS V14.01,2013-02-21 13:26:00,
2013-02-21 05:31:00,38.9,37.9,30.03,SE,126,2.0,2.0,96,0.00,,SKC,0.01,VWS V14.01,2013-02-21 13:31:00,
2013-02-21 05:36:00,38.9,37.9,30.03,SE,124,1.0,5.0,96,0.00,,SKC,0.01,VWS V14.01,2013-02-21 13:36:00,
2013-02-21 05:41:00,38.9,37.9,30.03,ESE,121,1.0,5.0,96,0.00,,SKC,0.01,VWS V14.01,2013-02-21 13:41:00,
2013-02-21 05:46:00,38.8,38.0,30.03,ESE,118,0.0,1.0,97,0.00,,SKC,0.01,VWS V14.01,2013-02-21 13:46:00,
2013-02-21 05:51:00,38.8,38.0,30.03,ESE,117,0.0,2.0,97,0.00,,SKC,0.01,VWS V14.01,2013-02-21 13:51:00,
2013-02-21 05:56:00,38.8,37.8,30.03,ESE,115,2.0,5.0,96,0.01,,SKC,0.02,VWS V14.01,2013-02-21 13:56:00,
2013-02-21 06:01:00,38.9,38.1,30.03,ESE,115,1.0,2.0,97,0.01,,SKC,0.02,VWS V14.01,2013-02-21 14:01:00,
2013-02-21 06:06:00,38.9,38.1,30.03,SE,136,1.0,4.0,97,0.01,,SKC,0.02,VWS V14.01,2013-02-21 14:06:00,
2013-02-21 06:11:00,39.0,38.2,30.03,SE,142,1.0,4.0,97,0.01,,SKC,0.02,VWS V14.01,2013-02-21 14:11:00,
2013-02-21 06:16:00,39.0,38.2,30.03,SSE,165,1.0,2.0,97,0.01,,SKC,0.02,VWS V14.01,2013-02-21 14:16:00,
2013-02-21 06:21:00,39.1,38.3,30.03,SSE,150,0.0,4.0,97,0.01,,SKC,0.02,VWS V14.01,2013-02-21 14:21:00,
2013-02-21 06:26:00,39.1,38.3,30.03,SE,130,0.0,4.0,97,0.01,,SKC,0.02,VWS V14.01,2013-02-21 14:26:00,
2013-02-21 06:31:00,39.1,38.3,30.03,SSE,161,2.0,5.0,97,0.01,,SKC,0.02,VWS V14.01,2013-02-21 14:31:00,
2013-02-21 06:36:00,39.2,38.4,30.03,SSE,159,1.0,5.0,97,0.01,,SKC,0.02,VWS V14.01,2013-02-21 14:36:00,
2013-02-21 06:41:00,39.2,38.4,30.04,SE,132,0.0,5.0,97,0.01,,SKC,0.02,VWS V14.01,2013-02-21 14:41:00,
2013-02-21 06:46:00,39.2,38.4,30.03,SE,124,2.0,4.0,97,0.01,,SKC,0.02,VWS V14.01,2013-02-21 14:46:00,
2013-02-21 06:51:00,39.3,38.5,30.03,SSE,156,1.0,4.0,97,0.01,,SKC,0.02,VWS V14.01,2013-02-21 14:51:00,
2013-02-21 06:56:00,39.4,38.6,30.03,SSE,161,0.0,5.0,97,0.01,,SKC,0.02,VWS V14.01,2013-02-21 14:56:00,
2013-02-21 07:01:00,39.4,38.6,30.04,ESE,119,0.0,6.0,97,0.00,,SKC,0.02,VWS V14.01,2013-02-21 15:01:00,
2013-02-21 07:06:00,39.5,38.7,30.04,SE,128,2.0,6.0,97,0.00,,SKC,0.02,VWS V14.01,2013-02-21 15:06:00,
2013-02-21 07:11:00,39.5,38.7,30.04,SSE,153,2.0,6.0,97,0.00,,SKC,0.02,VWS V14.01,2013-02-21 15:11:00,
2013-02-21 07:16:00,39.5,38.7,30.04,South,175,0.0,4.0,97,0.00,,SKC,0.02,VWS V14.01,2013-02-21 15:16:00,
2013-02-21 07:21:00,39.5,38.7,30.04,ESE,121,0.0,5.0,97,0.00,,SKC,0.02,VWS V14.01,2013-02-21 15:21:00,
2013-02-21 07:26:00,39.5,38.7,30.04,ESE,121,0.0,5.0,97,0.00,,SKC,0.02,VWS V14.01,2013-02-21 15:26:00,
2013-02-21 07:31:00,39.5,38.7,30.04,ESE,118,1.0,4.0,97,0.00,,SKC,0.02,VWS V14.01,2013-02-21 15:31:00,
2013-02-21 07:36:00,39.6,38.8,30.04,SSE,158,1.0,5.0,97,0.01,,SKC,0.03,VWS V14.01,2013-02-21 15:36:00,
2013-02-21 07:41:00,39.6,38.8,30.04,SSE,149,7.0,7.0,97,0.01,,SKC,0.03,VWS V14.01,2013-02-21 15:41:00,
2013-02-21 07:46:00,39.7,38.9,30.04,SSE,158,0.0,4.0,97,0.01,,SKC,0.03,VWS V14.01,2013-02-21 15:46:00,
2013-02-21 07:51:00,39.7,38.9,30.04,South,172,2.0,5.0,97,0.01,,SKC,0.03,VWS V14.01,2013-02-21 15:51:00,
2013-02-21 07:56:00,39.7,38.9,30.04,SSE,157,4.0,6.0,97,0.01,,SKC,0.03,VWS V14.01,2013-02-21 15:56:00,
2013-02-21 08:01:00,39.8,39.0,30.04,SSE,156,5.0,6.0,97,0.02,,SKC,0.04,VWS V14.01,2013-02-21 16:01:00,
2013-02-21 08:06:00,39.9,38.8,30.04,SSE,159,2.0,6.0,96,0.02,,SKC,0.04,VWS V14.01,2013-02-21 16:06:00,
2013-02-21 08:11:00,39.9,38.8,30.04,SSE,159,0.0,6.0,96,0.02,,SKC,0.04,VWS V14.01,2013-02-21 16:11:00,
2013-02-21 08:16:00,39.9,39.1,30.04,SE,133,0.0,2.0,97,0.02,,SKC,0.04,VWS V14.01,2013-02-21 16:16:00,
2013-02-21 08:21:00,39.9,39.1,30.03,SE,133,0.0,5.0,97,0.02,,SKC,0.04,VWS V14.01,2013-02-21 16:21:00,
2013-02-21 08:27:00,40.0,39.2,30.04,SE,132,1.0,6.0,97,0.02,,SKC,0.04,VWS V14.01,2013-02-21 16:27:00,
2013-02-21 08:32:00,40.1,39.3,30.04,SSE,158,5.0,6.0,97,0.02,,SKC,0.04,VWS V14.01,2013-02-21 16:32:00,
2013-02-21 08:37:00,40.1,39.0,30.04,ESE,111,1.0,8.0,96,0.02,,SKC,0.04,VWS V14.01,2013-02-21 16:37:00,
2013-02-21 08:42:00,40.2,39.2,30.04,SE,134,2.0,8.0,96,0.02,,SKC,0.04,VWS V14.01,2013-02-21 16:42:00,
2013-02-21 08:47:00,40.2,39.2,30.04,SSW,194,2.0,3.0,96,0.01,,SKC,0.04,VWS V14.01,2013-02-21 16:47:00,
2013-02-21 08:52:00,40.3,39.2,30.05,SE,146,4.0,6.0,96,0.01,,SKC,0.04,VWS V14.01,2013-02-21 16:52:00,
2013-02-21 08:57:00,40.4,39.3,30.04,SSE,148,2.0,8.0,96,0.01,,SKC,0.04,VWS V14.01,2013-02-21 16:57:00,
2013-02-21 09:02:00,40.4,39.3,30.04,SSW,211,2.0,5.0,96,0.00,,SKC,0.04,VWS V14.01,2013-02-21 17:02:00,
2013-02-21 09:07:00,40.4,39.3,30.04,SSE,149,4.0,6.0,96,0.00,,SKC,0.04,VWS V14.01,2013-02-21 17:07:00,
2013-02-21 09:12:00,40.4,39.3,30.04,SE,139,0.0,6.0,96,0.00,,SKC,0.04,VWS V14.01,2013-02-21 17:12:00,
2013-02-21 09:17:00,40.4,39.3,30.04,SSW,201,4.0,6.0,96,0.00,,SKC,0.04,VWS V14.01,2013-02-21 17:17:00,
2013-02-21 09:22:00,40.5,39.5,30.04,South,190,0.0,7.0,96,0.00,,SKC,0.04,VWS V14.01,2013-02-21 17:22:00,
2013-02-21 09:27:00,40.6,39.5,30.05,South,183,2.0,7.0,96,0.00,,SKC,0.04,VWS V14.01,2013-02-21 17:27:00,
2013-02-21 09:32:00,40.6,39.5,30.05,SE,134,0.0,6.0,96,0.00,,SKC,0.04,VWS V14.01,2013-02-21 17:32:00,
2013-02-21 09:37:00,40.7,39.7,30.05,South,178,2.0,9.0,96,0.00,,SKC,0.04,VWS V14.01,2013-02-21 17:37:00,
2013-02-21 09:42:00,40.8,39.5,30.04,SSE,157,4.0,9.0,95,0.00,,SKC,0.04,VWS V14.01,2013-02-21 17:42:00,
2013-02-21 09:47:00,40.9,39.6,30.04,SE,144,2.0,10.0,95,0.00,,SKC,0.04,VWS V14.01,2013-02-21 17:47:00,
2013-02-21 09:52:00,41.0,41.0,30.04,SSE,163,2.0,10.0,100,0.00,,SKC,0.04,VWS V14.01,2013-02-21 17:52:00,
2013-02-21 09:57:00,41.2,39.9,30.04,South,184,5.0,10.0,95,0.00,,SKC,0.04,VWS V14.01,2013-02-21 17:57:00,
2013-02-21 10:02:00,41.4,40.1,30.05,SSE,150,2.0,8.0,95,0.00,,SKC,0.04,VWS V14.01,2013-02-21 18:02:00,
2013-02-21 10:07:00,41.6,40.0,30.05,SSE,161,4.0,8.0,94,0.00,,SKC,0.04,VWS V14.01,2013-02-21 18:07:00,
2013-02-21 10:12:00,41.6,40.0,30.05,South,177,5.0,9.0,94,0.00,,SKC,0.04,VWS V14.01,2013-02-21 18:12:00,
2013-02-21 10:17:00,41.5,39.6,30.05,SSE,164,5.0,9.0,93,0.00,,SKC,0.04,VWS V14.01,2013-02-21 18:17:00,
2013-02-21 10:22:00,41.5,39.6,30.05,SE,138,6.0,9.0,93,0.00,,SKC,0.04,VWS V14.01,2013-02-21 18:22:00,
2013-02-21 10:27:00,41.4,39.5,30.05,SSE,151,6.0,9.0,93,0.00,,SKC,0.04,VWS V14.01,2013-02-21 18:27:00,
2013-02-21 10:32:00,41.3,39.4,30.05,SSW,193,2.0,5.0,93,0.00,,SKC,0.04,VWS V14.01,2013-02-21 18:32:00,
2013-02-21 10:37:00,41.3,39.4,30.05,SSW,199,2.0,7.0,93,0.00,,SKC,0.04,VWS V14.01,2013-02-21 18:37:00,
2013-02-21 10:42:00,41.3,39.4,30.05,SSE,148,2.0,9.0,93,0.00,,SKC,0.04,VWS V14.01,2013-02-21 18:42:00,
2013-02-21 10:47:00,41.2,39.3,30.05,South,175,5.0,8.0,93,0.00,,SKC,0.04,VWS V14.01,2013-02-21 18:47:00,
2013-02-21 10:52:00,41.2,39.3,30.05,SSW,198,2.0,8.0,93,0.00,,SKC,0.04,VWS V14.01,2013-02-21 18:52:00,
2013-02-21 10:57:00,41.1,39.2,30.05,SSW,200,5.0,8.0,93,0.00,,SKC,0.04,VWS V14.01,2013-02-21 18:57:00,
2013-02-21 11:02:00,41.1,39.2,30.05,SSE,155,1.0,5.0,93,0.00,,SKC,0.04,VWS V14.01,2013-02-21 19:02:00,
2013-02-21 11:07:00,41.1,39.2,30.05,SE,144,7.0,9.0,93,0.00,,SKC,0.04,VWS V14.01,2013-02-21 19:07:00,
2013-02-21 11:12:00,41.1,39.2,30.05,SSE,168,1.0,9.0,93,0.00,,SKC,0.04,VWS V14.01,2013-02-21 19:12:00,
2013-02-21 11:17:00,41.2,39.3,30.05,SSW,200,4.0,6.0,93,0.00,,SKC,0.04,VWS V14.01,2013-02-21 19:17:00,
2013-02-21 11:22:00,41.3,39.4,30.05,South,186,3.0,8.0,93,0.00,,SKC,0.04,VWS V14.01,2013-02-21 19:22:00,
2013-02-21 11:27:00,41.3,39.4,30.05,SE,130,5.0,8.0,93,0.01,,SKC,0.05,VWS V14.01,2013-02-21 19:27:00,
2013-02-21 11:32:00,41.2,39.3,30.05,SSW,211,1.0,3.0,93,0.02,,SKC,0.06,VWS V14.01,2013-02-21 19:32:00,
2013-02-21 11:37:00,41.0,39.4,30.05,SE,145,4.0,7.0,94,0.02,,SKC,0.06,VWS V14.01,2013-02-21 19:37:00,
2013-02-21 11:42:00,41.0,39.4,30.04,SSW,207,4.0,8.0,94,0.02,,SKC,0.06,VWS V14.01,2013-02-21 19:42:00,
2013-02-21 11:47:00,41.0,39.4,30.05,SE,144,4.0,6.0,94,0.03,,SKC,0.07,VWS V14.01,2013-02-21 19:47:00,
2013-02-21 11:52:00,41.0,39.4,30.05,South,182,4.0,10.0,94,0.03,,SKC,0.07,VWS V14.01,2013-02-21 19:52:00,
2013-02-21 11:57:00,41.0,39.4,30.04,SSE,154,2.0,10.0,94,0.03,,SKC,0.07,VWS V14.01,2013-02-21 19:57:00,
2013-02-21 12:02:00,41.0,39.4,30.04,SSE,164,5.0,12.0,94,0.03,,SKC,0.07,VWS V14.01,2013-02-21 20:02:00,
2013-02-21 12:07:00,41.0,39.4,30.04,South,177,4.0,12.0,94,0.04,,SKC,0.08,VWS V14.01,2013-02-21 20:07:00,
2013-02-21 12:12:00,41.0,39.4,30.04,South,174,4.0,12.0,94,0.04,,SKC,0.08,VWS V14.01,2013-02-21 20:12:00,
2013-02-21 12:18:00,41.0,39.4,30.04,South,184,4.0,7.0,94,0.04,,SKC,0.08,VWS V14.01,2013-02-21 20:18:00,
2013-02-21 12:23:00,41.0,41.0,30.05,SE,128,5.0,9.0,100,0.04,,SKC,0.08,VWS V14.01,2013-02-21 20:23:00,
2013-02-21 12:28:00,41.0,39.4,30.04,East,101,7.0,9.0,94,0.04,,SKC,0.08,VWS V14.01,2013-02-21 20:28:00,
2013-02-21 12:33:00,41.0,39.4,30.04,ESE,115,6.0,9.0,94,0.02,,SKC,0.08,VWS V14.01,2013-02-21 20:33:00,
2013-02-21 12:38:00,40.9,39.0,30.04,SSW,209,9.0,13.0,93,0.02,,SKC,0.08,VWS V14.01,2013-02-21 20:38:00,
2013-02-21 12:43:00,41.0,39.1,30.04,SSE,167,0.0,13.0,93,0.02,,SKC,0.08,VWS V14.01,2013-02-21 20:43:00,
2013-02-21 12:48:00,41.1,39.2,30.03,SSE,153,5.0,8.0,93,0.02,,SKC,0.08,VWS V14.01,2013-02-21 20:48:00,
2013-02-21 12:53:00,41.1,39.2,30.03,SE,139,2.0,11.0,93,0.02,,SKC,0.08,VWS V14.01,2013-02-21 20:53:00,
2013-02-21 12:58:00,41.2,39.3,30.03,South,186,2.0,11.0,93,0.02,,SKC,0.08,VWS V14.01,2013-02-21 20:58:00,
2013-02-21 13:03:00,41.3,39.4,30.03,SSE,153,0.0,10.0,93,0.01,,SKC,0.08,VWS V14.01,2013-02-21 21:03:00,
2013-02-21 13:08:00,41.3,39.4,30.03,SE,146,6.0,10.0,93,0.01,,SKC,0.08,VWS V14.01,2013-02-21 21:08:00,
2013-02-21 13:13:00,41.4,39.5,30.03,SSW,205,0.0,10.0,93,0.01,,SKC,0.08,VWS V14.01,2013-02-21 21:13:00,
2013-02-21 13:18:00,41.4,39.2,30.03,SE,135,5.0,6.0,92,0.00,,SKC,0.08,VWS V14.01,2013-02-21 21:18:00,
2013-02-21 13:23:00,41.4,39.2,30.03,SSE,163,4.0,13.0,92,0.00,,SKC,0.08,VWS V14.01,2013-02-21 21:23:00,
2013-02-21 13:28:00,41.3,39.2,30.03,South,190,1.0,13.0,92,0.00,,SKC,0.08,VWS V14.01,2013-02-21 21:28:00,
2013-02-21 13:33:00,41.4,39.2,30.03,SSE,150,5.0,5.0,92,0.00,,SKC,0.08,VWS V14.01,2013-02-21 21:33:00,
2013-02-21 13:38:00,41.4,39.2,30.03,South,177,6.0,8.0,92,0.00,,SKC,0.08,VWS V14.01,2013-02-21 21:38:00,
2013-02-21 13:43:00,41.5,39.3,30.03,SSW,204,0.0,8.0,92,0.00,,SKC,0.08,VWS V14.01,2013-02-21 21:43:00,
2013-02-21 13:48:00,41.5,39.3,30.03,SE,146,7.0,9.0,92,0.00,,SKC,0.08,VWS V14.01,2013-02-21 21:48:00,
2013-02-21 13:53:00,41.5,39.1,30.03,SSE,153,5.0,9.0,91,0.00,,SKC,0.08,VWS V14.01,2013-02-21 21:53:00,
2013-02-21 13:58:00,41.5,38.8,30.03,SSE,159,8.0,12.0,90,0.00,,SKC,0.08,VWS V14.01,2013-02-21 21:58:00,
2013-02-21 14:03:00,41.7,39.0,30.02,SSE,159,4.0,9.0,90,0.00,,SKC,0.08,VWS V14.01,2013-02-21 22:03:00,
2013-02-21 14:08:00,41.8,39.1,30.03,SE,142,4.0,9.0,90,0.00,,SKC,0.08,VWS V14.01,2013-02-21 22:08:00,
2013-02-21 14:13:00,41.8,39.4,30.03,SE,132,4.0,9.0,91,0.00,,SKC,0.08,VWS V14.01,2013-02-21 22:13:00,
2013-02-21 14:18:00,41.6,39.2,30.03,SSE,148,5.0,6.0,91,0.00,,SKC,0.08,VWS V14.01,2013-02-21 22:18:00,
2013-02-21 14:23:00,41.4,39.0,30.03,SE,143,5.0,8.0,91,0.00,,SKC,0.08,VWS V14.01,2013-02-21 22:23:00,
2013-02-21 14:28:00,41.2,39.1,30.03,SE,145,2.0,11.0,92,0.00,,SKC,0.08,VWS V14.01,2013-02-21 22:28:00,
2013-02-21 14:33:00,41.1,39.0,30.03,SE,127,2.0,4.0,92,0.00,,SKC,0.08,VWS V14.01,2013-02-21 22:33:00,
2013-02-21 14:38:00,41.1,39.0,30.03,SSE,154,5.0,6.0,92,0.00,,SKC,0.08,VWS V14.01,2013-02-21 22:38:00,
2013-02-21 14:43:00,41.1,39.2,30.03,ESE,123,7.0,9.0,93,0.00,,SKC,0.08,VWS V14.01,2013-02-21 22:43:00,
2013-02-21 14:48:00,41.0,40.5,30.03,South,170,6.0,6.0,98,0.00,,SKC,0.08,VWS V14.01,2013-02-21 22:48:00,
2013-02-21 14:53:00,40.9,39.0,30.03,ESE,121,2.0,8.0,93,0.00,,SKC,0.08,VWS V14.01,2013-02-21 22:53:00,
2013-02-21 14:58:00,40.9,39.0,30.03,ESE,118,5.0,8.0,93,0.00,,SKC,0.08,VWS V14.01,2013-02-21 22:58:00,
2013-02-21 15:03:00,40.8,38.9,30.04,SSE,159,5.0,8.0,93,0.00,,SKC,0.08,VWS V14.01,2013-02-21 23:03:00,
2013-02-21 15:08:00,40.8,38.9,30.04,ESE,112,5.0,8.0,93,0.00,,SKC,0.08,VWS V14.01,2013-02-21 23:08:00,
2013-02-21 15:14:00,40.8,38.9,30.04,SE,138,4.0,8.0,93,0.00,,SKC,0.08,VWS V14.01,2013-02-21 23:14:00,
2013-02-21 15:19:00,40.8,38.9,30.04,SE,131,1.0,6.0,93,0.00,,SKC,0.08,VWS V14.01,2013-02-21 23:19:00,
2013-02-21 15:24:00,40.7,38.8,30.04,SE,130,1.0,7.0,93,0.00,,SKC,0.08,VWS V14.01,2013-02-21 23:24:00,
2013-02-21 15:29:00,40.7,38.8,30.03,SE,134,0.0,7.0,93,0.00,,SKC,0.08,VWS V14.01,2013-02-21 23:29:00,
2013-02-21 15:34:00,40.7,38.8,30.04,SE,125,1.0,7.0,93,0.00,,SKC,0.08,VWS V14.01,2013-02-21 23:34:00,
2013-02-21 15:39:00,40.6,39.0,30.04,ESE,119,0.0,7.0,94,0.00,,SKC,0.08,VWS V14.01,2013-02-21 23:39:00,
2013-02-21 15:44:00,40.6,39.0,30.04,ESE,118,0.0,7.0,94,0.00,,SKC,0.08,VWS V14.01,2013-02-21 23:44:00,
2013-02-21 15:49:00,40.5,38.9,30.04,SE,137,1.0,8.0,94,0.00,,SKC,0.08,VWS V14.01,2013-02-21 23:49:00,
2013-02-21 15:54:00,40.5,38.9,30.04,ESE,115,2.0,8.0,94,0.00,,SKC,0.08,VWS V14.01,2013-02-21 23:54:00,
2013-02-21 15:59:00,40.4,38.8,30.04,SE,143,2.0,8.0,94,0.00,,SKC,0.08,VWS V14.01,2013-02-21 23:59:00,
2013-02-21 16:04:00,40.4,38.8,30.04,SSE,150,2.0,6.0,94,0.00,,SKC,0.08,VWS V14.01,2013-02-22 00:04:00,
2013-02-21 16:09:00,40.3,38.7,30.04,ESE,119,4.0,7.0,94,0.00,,SKC,0.08,VWS V14.01,2013-02-22 00:09:00,
2013-02-21 16:14:00,40.3,38.7,30.04,SE,124,4.0,7.0,94,0.00,,SKC,0.08,VWS V14.01,2013-02-22 00:14:00,
2013-02-21 16:19:00,40.4,38.8,30.04,SSE,159,4.0,5.0,94,0.00,,SKC,0.08,VWS V14.01,2013-02-22 00:19:00,
2013-02-21 16:24:00,40.4,38.8,30.04,ESE,120,5.0,6.0,94,0.00,,SKC,0.08,VWS V14.01,2013-02-22 00:24:00,
2013-02-21 16:29:00,40.4,38.8,30.04,South,176,1.0,6.0,94,0.00,,SKC,0.08,VWS V14.01,2013-02-22 00:29:00,
2013-02-21 16:34:00,40.4,39.1,30.04,SE,136,2.0,4.0,95,0.00,,SKC,0.08,VWS V14.01,2013-02-22 00:34:00,
2013-02-21 16:39:00,40.4,39.1,30.04,SE,125,4.0,5.0,95,0.00,,SKC,0.08,VWS V14.01,2013-02-22 00:39:00,
2013-02-21 16:44:00,40.4,39.1,30.03,ESE,119,2.0,5.0,95,0.00,,SKC,0.08,VWS V14.01,2013-02-22 00:44:00,
2013-02-21 16:49:00,40.4,39.1,30.03,ESE,119,1.0,4.0,95,0.00,,SKC,0.08,VWS V14.01,2013-02-22 00:49:00,
2013-02-21 16:54:00,40.4,39.1,30.03,ESE,117,0.0,4.0,95,0.00,,SKC,0.08,VWS V14.01,2013-02-22 00:54:00,
2013-02-21 16:59:00,40.4,39.1,30.04,ESE,117,0.0,4.0,95,0.00,,SKC,0.08,VWS V14.01,2013-02-22 00:59:00,
2013-02-21 17:04:00,40.4,39.1,30.04,ESE,117,0.0,4.0,95,0.00,,SKC,0.08,VWS V14.01,2013-02-22 01:04:00,
2013-02-21 17:09:00,40.4,39.1,30.04,ESE,117,0.0,4.0,95,0.00,,SKC,0.08,VWS V14.01,2013-02-22 01:09:00,
2013-02-21 17:14:00,40.4,39.1,30.05,ESE,117,0.0,4.0,95,0.00,,SKC,0.08,VWS V14.01,2013-02-22 01:14:00,
2013-02-21 17:19:00,40.4,39.3,30.04,ESE,117,0.0,2.0,96,0.00,,SKC,0.08,VWS V14.01,2013-02-22 01:19:00,
2013-02-21 17:24:00,40.3,39.2,30.05,ESE,117,0.0,2.0,96,0.00,,SKC,0.08,VWS V14.01,2013-02-22 01:24:00,
2013-02-21 17:29:00,40.3,39.2,30.05,ESE,117,0.0,2.0,96,0.00,,SKC,0.08,VWS V14.01,2013-02-22 01:29:00,
2013-02-21 17:34:00,40.3,39.2,30.05,ESE,117,0.0,1.0,96,0.00,,SKC,0.08,VWS V14.01,2013-02-22 01:34:00,
2013-02-21 17:39:00,40.3,39.2,30.05,ESE,117,0.0,2.0,96,0.00,,SKC,0.08,VWS V14.01,2013-02-22 01:39:00,
2013-02-21 17:44:00,40.2,39.2,30.06,ESE,117,0.0,2.0,96,0.00,,SKC,0.08,VWS V14.01,2013-02-22 01:44:00,
2013-02-21 17:49:00,40.2,39.2,30.06,ESE,117,0.0,1.0,96,0.00,,SKC,0.08,VWS V14.01,2013-02-22 01:49:00,
2013-02-21 17:54:00,40.2,39.2,30.06,ESE,117,0.0,1.0,96,0.00,,SKC,0.08,VWS V14.01,2013-02-22 01:54:00,
2013-02-21 17:59:00,40.2,39.2,30.06,ESE,117,0.0,1.0,96,0.00,,SKC,0.08,VWS V14.01,2013-02-22 01:59:00,
2013-02-21 18:04:00,40.2,39.2,30.06,ESE,117,0.0,1.0,96,0.00,,SKC,0.08,VWS V14.01,2013-02-22 02:04:00,
2013-02-21 18:09:00,40.2,39.2,30.06,ESE,117,0.0,2.0,96,0.00,,SKC,0.08,VWS V14.01,2013-02-22 02:09:00,
2013-02-21 18:14:00,40.2,39.2,30.06,ESE,117,0.0,4.0,96,0.00,,SKC,0.08,VWS V14.01,2013-02-22 02:14:00,
2013-02-21 18:19:00,40.3,39.2,30.06,ESE,120,2.0,4.0,96,0.00,,SKC,0.08,VWS V14.01,2013-02-22 02:19:00,
2013-02-21 18:24:00,40.2,39.2,30.06,ESE,120,0.0,4.0,96,0.00,,SKC,0.08,VWS V14.01,2013-02-22 02:24:00,
2013-02-21 18:29:00,40.2,39.2,30.05,ESE,120,0.0,4.0,96,0.00,,SKC,0.08,VWS V14.01,2013-02-22 02:29:00,
2013-02-21 18:34:00,40.2,39.2,30.05,ESE,120,0.0,1.0,96,0.00,,SKC,0.08,VWS V14.01,2013-02-22 02:34:00,
2013-02-21 18:40:00,40.3,39.2,30.05,ESE,120,0.0,1.0,96,0.00,,SKC,0.08,VWS V14.01,2013-02-22 02:40:00,
2013-02-21 18:45:00,40.2,39.2,30.05,ESE,120,0.0,1.0,96,0.00,,SKC,0.08,VWS V14.01,2013-02-22 02:45:00,
2013-02-21 18:50:00,40.2,39.4,30.05,ESE,120,0.0,1.0,97,0.00,,SKC,0.08,VWS V14.01,2013-02-22 02:50:00,
2013-02-21 18:55:00,40.2,39.2,30.05,ESE,119,0.0,2.0,96,0.00,,SKC,0.08,VWS V14.01,2013-02-22 02:55:00,
2013-02-21 19:00:00,40.2,39.4,30.05,ESE,119,0.0,2.0,97,0.00,,SKC,0.08,VWS V14.01,2013-02-22 03:00:00,
2013-02-21 19:05:00,40.2,39.4,30.05,ESE,119,0.0,1.0,97,0.00,,SKC,0.08,VWS V14.01,2013-02-22 03:05:00,
2013-02-21 19:10:00,40.2,39.4,30.04,ESE,119,0.0,1.0,97,0.00,,SKC,0.08,VWS V14.01,2013-02-22 03:10:00,
2013-02-21 19:15:00,40.2,39.4,30.04,ESE,119,0.0,1.0,97,0.00,,SKC,0.08,VWS V14.01,2013-02-22 03:15:00,
2013-02-21 19:20:00,40.2,39.4,30.05,ESE,119,0.0,2.0,97,0.00,,SKC,0.08,VWS V14.01,2013-02-22 03:20:00,
2013-02-21 19:25:00,40.2,39.4,30.05,ESE,119,0.0,2.0,97,0.00,,SKC,0.08,VWS V14.01,2013-02-22 03:25:00,
2013-02-21 19:30:00,40.2,39.4,30.04,ESE,119,0.0,2.0,97,0.00,,SKC,0.08,VWS V14.01,2013-02-22 03:30:00,
2013-02-21 19:35:00,40.2,39.4,30.05,ESE,119,0.0,1.0,97,0.00,,SKC,0.08,VWS V14.01,2013-02-22 03:35:00,
2013-02-21 19:40:00,40.2,39.4,30.05,ESE,119,0.0,1.0,97,0.00,,SKC,0.08,VWS V14.01,2013-02-22 03:40:00,
2013-02-21 19:45:00,40.2,39.4,30.05,ESE,119,0.0,2.0,97,0.00,,SKC,0.08,VWS V14.01,2013-02-22 03:45:00,
2013-02-21 19:50:00,40.2,39.4,30.05,ESE,119,0.0,1.0,97,0.00,,SKC,0.08,VWS V14.01,2013-02-22 03:50:00,
2013-02-21 19:55:00,40.3,39.5,30.05,ESE,119,0.0,1.0,97,0.00,,SKC,0.08,VWS V14.01,2013-02-22 03:55:00,
2013-02-21 20:00:00,40.3,39.5,30.05,ESE,119,0.0,1.0,97,0.00,,SKC,0.08,VWS V14.01,2013-02-22 04:00:00,
2013-02-21 20:05:00,40.3,39.5,30.05,ESE,119,1.0,2.0,97,0.00,,SKC,0.08,VWS V14.01,2013-02-22 04:05:00,
2013-02-21 20:10:00,40.3,39.5,30.05,ESE,119,0.0,2.0,97,0.00,,SKC,0.08,VWS V14.01,2013-02-22 04:10:00,
2013-02-21 20:15:00,40.3,39.5,30.05,ESE,119,0.0,2.0,97,0.00,,SKC,0.08,VWS V14.01,2013-02-22 04:15:00,
2013-02-21 20:20:00,40.3,39.5,30.05,ESE,119,0.0,1.0,97,0.00,,SKC,0.08,VWS V14.01,2013-02-22 04:20:00,
2013-02-21 20:25:00,40.3,39.5,30.06,ESE,119,0.0,1.0,97,0.00,,SKC,0.08,VWS V14.01,2013-02-22 04:25:00,
2013-02-21 20:30:00,40.4,39.6,30.06,ESE,119,0.0,0.0,97,0.00,,SKC,0.08,VWS V14.01,2013-02-22 04:30:00,
2013-02-21 20:35:00,40.3,39.5,30.06,ESE,119,0.0,2.0,97,0.00,,SKC,0.08,VWS V14.01,2013-02-22 04:35:00,
2013-02-21 20:40:00,40.4,39.6,30.06,ESE,119,0.0,2.0,97,0.00,,SKC,0.08,VWS V14.01,2013-02-22 04:40:00,
2013-02-21 20:45:00,40.4,39.6,30.06,ESE,119,0.0,0.0,97,0.00,,SKC,0.08,VWS V14.01,2013-02-22 04:45:00,
2013-02-21 20:50:00,40.4,39.6,30.06,ESE,119,0.0,1.0,97,0.00,,SKC,0.08,VWS V14.01,2013-02-22 04:50:00,
2013-02-21 20:55:00,40.4,39.6,30.06,ESE,119,0.0,1.0,97,0.00,,SKC,0.08,VWS V14.01,2013-02-22 04:55:00,
2013-02-21 21:00:00,40.4,39.6,30.06,ESE,119,0.0,1.0,97,0.00,,SKC,0.08,VWS V14.01,2013-02-22 05:00:00,
2013-02-21 21:01:00,40.4,39.6,30.06,ESE,119,0.0,1.0,97,0.00,,SKC,0.08,VWS V14.01,2013-02-22 05:01:00,
2013-02-21 21:06:00,40.4,39.6,30.07,ESE,119,0.0,1.0,97,0.00,,SKC,0.08,VWS V14.01,2013-02-22 05:06:00,
2013-02-21 21:11:00,40.4,39.6,30.07,ESE,119,0.0,1.0,97,0.00,,SKC,0.08,VWS V14.01,2013-02-22 05:11:00,
2013-02-21 21:14:00,40.4,39.6,30.07,ESE,119,0.0,1.0,97,0.00,,SKC,0.08,VWS V14.01,2013-02-22 05:14:00,
2013-02-21 21:19:00,40.5,39.7,30.07,ESE,119,0.0,1.0,97,0.00,,SKC,0.08,VWS V14.01,2013-02-22 05:19:00,
2013-02-21 21:24:00,40.5,39.7,30.07,ESE,119,0.0,2.0,97,0.00,,SKC,0.08,VWS V14.01,2013-02-22 05:24:00,
2013-02-21 21:29:00,40.5,39.7,30.07,ESE,119,0.0,2.0,97,0.00,,SKC,0.08,VWS V14.01,2013-02-22 05:29:00,
2013-02-21 21:34:00,40.5,39.7,30.07,ESE,119,0.0,1.0,97,0.00,,SKC,0.08,VWS V14.01,2013-02-22 05:34:00,
2013-02-21 21:39:00,40.5,39.7,30.07,ESE,119,0.0,1.0,97,0.00,,SKC,0.08,VWS V14.01,2013-02-22 05:39:00,
2013-02-21 21:44:00,40.5,39.7,30.07,ESE,119,0.0,1.0,97,0.00,,SKC,0.08,VWS V14.01,2013-02-22 05:44:00,
2013-02-21 21:49:00,40.5,39.7,30.07,ESE,119,0.0,2.0,97,0.00,,SKC,0.08,VWS V14.01,2013-02-22 05:49:00,
2013-02-21 21:54:00,40.6,39.8,30.07,ESE,119,0.0,2.0,97,0.00,,SKC,0.08,VWS V14.01,2013-02-22 05:54:00,
2013-02-21 21:59:00,40.6,39.8,30.07,ESE,119,0.0,2.0,97,0.00,,SKC,0.08,VWS V14.01,2013-02-22 05:59:00,
2013-02-21 22:04:00,40.5,39.7,30.07,ESE,119,0.0,1.0,97,0.00,,SKC,0.08,VWS V14.01,2013-02-22 06:04:00,
2013-02-21 22:09:00,40.5,39.7,30.07,ESE,119,0.0,1.0,97,0.00,,SKC,0.08,VWS V14.01,2013-02-22 06:09:00,
2013-02-21 22:14:00,40.5,39.7,30.06,ESE,119,0.0,1.0,97,0.00,,SKC,0.08,VWS V14.01,2013-02-22 06:14:00,
2013-02-21 22:20:00,40.5,39.7,30.06,ESE,119,0.0,1.0,97,0.00,,SKC,0.08,VWS V14.01,2013-02-22 06:20:00,
2013-02-21 22:25:00,40.5,40.0,30.06,ESE,119,0.0,4.0,98,0.00,,SKC,0.08,VWS V14.01,2013-02-22 06:25:00,
2013-02-21 22:30:00,40.5,40.0,30.06,ESE,119,0.0,4.0,98,0.00,,SKC,0.08,VWS V14.01,2013-02-22 06:30:00,
2013-02-21 22:35:00,40.5,40.0,30.05,ESE,119,1.0,2.0,98,0.00,,SKC,0.08,VWS V14.01,2013-02-22 06:35:00,
2013-02-21 22:40:00,40.6,40.1,30.05,SE,128,4.0,5.0,98,0.00,,SKC,0.08,VWS V14.01,2013-02-22 06:40:00,
2013-02-21 22:45:00,40.6,40.1,30.05,ESE,118,2.0,6.0,98,0.00,,SKC,0.08,VWS V14.01,2013-02-22 06:45:00,
2013-02-21 22:50:00,40.6,40.1,30.05,ESE,119,4.0,5.0,98,0.00,,SKC,0.08,VWS V14.01,2013-02-22 06:50:00,
2013-02-21 22:55:00,40.6,39.8,30.05,SE,130,0.0,5.0,97,0.00,,SKC,0.08,VWS V14.01,2013-02-22 06:55:00,
2013-02-21 23:00:00,40.7,39.9,30.05,SE,130,0.0,5.0,97,0.00,,SKC,0.08,VWS V14.01,2013-02-22 07:00:00,
2013-02-21 23:05:00,40.7,39.9,30.05,SE,130,1.0,4.0,97,0.00,,SKC,0.08,VWS V14.01,2013-02-22 07:05:00,
2013-02-21 23:10:00,40.8,40.0,30.05,SE,130,0.0,4.0,97,0.00,,SKC,0.08,VWS V14.01,2013-02-22 07:10:00,
2013-02-21 23:15:00,40.8,40.0,30.05,SE,130,0.0,4.0,97,0.00,,SKC,0.08,VWS V14.01,2013-02-22 07:15:00,
2013-02-21 23:20:00,40.9,40.1,30.05,SE,130,0.0,4.0,97,0.00,,SKC,0.08,VWS V14.01,2013-02-22 07:20:00,
2013-02-21 23:25:00,40.9,40.1,30.05,SE,136,0.0,4.0,97,0.00,,SKC,0.08,VWS V14.01,2013-02-22 07:25:00,
2013-02-21 23:30:00,40.9,40.1,30.05,SE,136,0.0,4.0,97,0.00,,SKC,0.08,VWS V14.01,2013-02-22 07:30:00,
2013-02-21 23:35:00,40.9,40.1,30.05,SSE,150,2.0,2.0,97,0.00,,SKC,0.08,VWS V14.01,2013-02-22 07:35:00,
2013-02-21 23:40:00,41.0,40.2,30.05,SSE,153,2.0,5.0,97,0.00,,SKC,0.08,VWS V14.01,2013-02-22 07:40:00,
2013-02-21 23:45:00,41.1,40.3,30.05,SSE,165,1.0,6.0,97,0.00,,SKC,0.08,VWS V14.01,2013-02-22 07:45:00,
2013-02-21 23:50:00,41.2,40.4,30.05,South,170,1.0,6.0,97,0.00,,SKC,0.08,VWS V14.01,2013-02-22 07:50:00,
2013-02-21 23:55:00,41.3,40.5,30.05,SE,124,2.0,6.0,97,0.00,,SKC,0.08,VWS V14.01,2013-02-22 07:55:00,